createdAt,value
2022-09-23T00:01:11.367Z,4.57
2022-09-23T00:03:45.476Z,4.25
2022-09-23T00:06:21.131Z,4.03
2022-09-23T00:08:50.451Z,4.45
2022-09-23T00:11:20.523Z,4.05
2022-09-23T00:13:50.885Z,4.13
2022-09-23T00:34:00.309Z,3.10
2022-09-23T00:36:29.384Z,3.67
2022-09-23T00:38:56.758Z,2.83
2022-09-23T00:41:24.909Z,3.55
2022-09-23T00:44:00.325Z,3.75
2022-09-23T00:46:35.003Z,3.28
2022-09-23T00:49:07.490Z,4.15
2022-09-23T00:51:40.195Z,3.60
2022-09-23T00:54:07.742Z,2.97
2022-09-23T00:56:36.291Z,3.53
2022-09-23T00:59:04.071Z,3.40
2022-09-23T01:01:31.474Z,3.67
2022-09-23T01:03:59.335Z,3.67
2022-09-23T01:06:26.607Z,4.00
2022-09-23T01:08:53.712Z,3.80
2022-09-23T01:11:36.131Z,3.58
2022-09-23T01:14:28.747Z,3.15
2022-09-23T01:17:39.487Z,3.20
2022-09-23T01:20:35.533Z,4.32
2022-09-23T01:23:14.259Z,3.72
2022-09-23T01:26:19.096Z,3.85
2022-09-23T01:28:49.273Z,4.22
2022-09-23T01:31:40.531Z,3.70
2022-09-23T01:34:13.187Z,3.45
2022-09-23T01:36:51.682Z,3.50
2022-09-23T01:39:46.126Z,3.38
2022-09-23T01:42:42.886Z,3.72
2022-09-23T01:45:46.258Z,3.20
2022-09-23T01:48:22.517Z,4.15
2022-09-23T01:51:03.499Z,3.58
2022-09-23T01:53:38.063Z,3.50
2022-09-23T01:56:23.240Z,3.08
2022-09-23T01:59:18.725Z,3.28
2022-09-23T02:02:05.450Z,3.25
2022-09-23T02:04:51.554Z,3.28
2022-09-23T02:07:30.838Z,3.15
2022-09-23T02:10:32.229Z,3.20
2022-09-23T02:13:08.533Z,3.30
2022-09-23T02:15:47.734Z,3.22
2022-09-23T02:18:21.686Z,2.80
2022-09-23T02:20:51.401Z,2.40
2022-09-23T02:23:25.050Z,2.70
2022-09-23T02:26:17.091Z,2.58
2022-09-23T02:28:54.887Z,2.63
2022-09-23T02:31:30.915Z,2.60
2022-09-23T02:34:15.661Z,2.80
2022-09-23T02:37:02.484Z,3.20
2022-09-23T02:39:42.621Z,2.67
2022-09-23T02:42:16.567Z,2.72
2022-09-23T02:44:43.538Z,3.20
2022-09-23T02:47:10.739Z,3.20
2022-09-23T02:49:38.173Z,2.60
2022-09-23T02:52:07.987Z,2.40
2022-09-23T02:54:36.761Z,2.65
2022-09-23T02:57:06.679Z,2.45
2022-09-23T02:59:35.767Z,2.80
2022-09-23T03:02:04.521Z,2.50
2022-09-23T03:04:47.959Z,2.53
2022-09-23T03:07:41.279Z,2.10
2022-09-23T03:10:16.340Z,2.53
2022-09-23T03:13:00.672Z,2.80
2022-09-23T03:15:57.328Z,2.38
2022-09-23T03:18:31.708Z,2.25
2022-09-23T03:21:13.768Z,2.25
2022-09-23T03:23:42.372Z,2.22
2022-09-23T03:26:20.930Z,2.33
2022-09-23T03:28:50.330Z,2.97
2022-09-23T03:31:17.722Z,2.53
2022-09-23T03:33:54.697Z,2.33
2022-09-23T03:36:52.144Z,2.00
2022-09-23T03:39:40.405Z,2.10
2022-09-23T03:42:17.582Z,2.10
2022-09-23T03:44:46.233Z,2.35
2022-09-23T03:47:16.475Z,2.28
2022-09-23T03:49:48.243Z,2.25
2022-09-23T03:52:21.820Z,2.15
2022-09-23T03:54:49.960Z,2.20
2022-09-23T03:57:17.141Z,2.10
2022-09-23T03:59:44.517Z,2.25
2022-09-23T04:02:11.952Z,2.10
2022-09-23T04:04:41.077Z,2.42
2022-09-23T04:07:09.028Z,1.65
2022-09-23T04:09:36.680Z,1.80
2022-09-23T04:12:04.344Z,1.95
2022-09-23T04:14:31.430Z,2.35
2022-09-23T04:16:58.736Z,2.10
2022-09-23T04:19:25.798Z,2.22
2022-09-23T04:21:52.961Z,1.92
2022-09-23T04:24:20.083Z,2.08
2022-09-23T04:26:52.013Z,2.30
2022-09-23T04:29:19.712Z,2.03
2022-09-23T04:31:47.099Z,2.22
2022-09-23T04:34:15.807Z,2.13
2022-09-23T04:36:48.113Z,2.60
2022-09-23T04:39:17.033Z,2.17
2022-09-23T04:41:45.976Z,2.53
2022-09-23T04:44:13.967Z,2.65
2022-09-23T04:46:41.575Z,2.30
2022-09-23T04:49:08.778Z,2.30
2022-09-23T04:51:35.927Z,2.17
2022-09-23T04:54:02.995Z,2.50
2022-09-23T04:56:33.993Z,2.60
2022-09-23T04:59:01.977Z,2.50
2022-09-23T05:01:32.225Z,2.42
2022-09-23T05:04:02.633Z,2.40
2022-09-23T05:06:31.574Z,2.20
2022-09-23T05:08:59.283Z,2.92
2022-09-23T05:11:27.023Z,1.98
2022-09-23T05:13:54.958Z,2.65
2022-09-23T05:16:23.407Z,2.60
2022-09-23T05:18:51.873Z,1.90
2022-09-23T05:21:21.435Z,2.20
2022-09-23T05:23:54.462Z,3.17
2022-09-23T05:26:23.163Z,2.35
2022-09-23T05:28:50.075Z,2.90
2022-09-23T05:31:22.783Z,2.95
2022-09-23T05:33:57.298Z,2.47
2022-09-23T05:36:25.570Z,2.53
2022-09-23T05:38:54.678Z,2.53
2022-09-23T05:41:23.073Z,2.45
2022-09-23T05:43:51.878Z,2.95
2022-09-23T05:46:24.678Z,2.45
2022-09-23T05:48:53.276Z,3.15
2022-09-23T05:51:25.463Z,2.90
2022-09-23T05:53:55.896Z,3.90
2022-09-23T05:56:25.620Z,3.63
2022-09-23T05:58:54.362Z,3.47
2022-09-23T06:01:27.429Z,2.85
2022-09-23T06:03:56.451Z,2.85
2022-09-23T06:06:33.217Z,2.50
2022-09-23T06:09:00.861Z,2.80
2022-09-23T06:11:30.806Z,2.50
2022-09-23T06:14:02.190Z,2.85
2022-09-23T06:16:34.597Z,3.15
2022-09-23T06:21:37.891Z,2.55
2022-09-23T06:24:06.507Z,3.17
2022-09-23T06:26:35.273Z,3.05
2022-09-23T06:29:03.633Z,3.42
2022-09-23T06:31:30.926Z,3.38
2022-09-23T06:34:11.844Z,2.97
2022-09-23T06:36:45.966Z,3.05
2022-09-23T06:39:15.720Z,3.65
2022-09-23T06:41:44.022Z,3.35
2022-09-23T06:44:14.663Z,3.00
2022-09-23T06:46:41.700Z,3.00
2022-09-23T06:49:09.225Z,2.90
2022-09-23T06:51:36.972Z,3.33
2022-09-23T06:54:04.166Z,2.75
2022-09-23T06:56:37.789Z,2.70
2022-09-23T06:59:07.180Z,3.30
2022-09-23T07:01:34.901Z,3.10
2022-09-23T07:04:02.287Z,2.92
2022-09-23T07:06:29.875Z,3.22
2022-09-23T07:08:56.897Z,3.13
2022-09-23T07:11:23.887Z,2.95
2022-09-23T07:13:51.117Z,2.92
2022-09-23T07:16:24.568Z,3.08
2022-09-23T07:18:55.433Z,2.50
2022-09-23T07:21:22.279Z,3.00
2022-09-23T07:23:52.002Z,2.40
2022-09-23T07:26:20.245Z,3.00
2022-09-23T07:28:47.784Z,2.58
2022-09-23T07:31:26.750Z,2.70
2022-09-23T07:34:01.171Z,2.78
2022-09-23T07:36:30.092Z,2.70
2022-09-23T07:39:01.781Z,3.13
2022-09-23T07:41:30.758Z,2.28
2022-09-23T07:44:00.174Z,2.60
2022-09-23T07:46:30.005Z,2.50
2022-09-23T07:49:03.487Z,2.90
2022-09-23T07:51:36.587Z,2.28
2022-09-23T07:54:07.380Z,2.58
2022-09-23T07:56:35.898Z,2.28
2022-09-23T07:59:04.264Z,1.95
2022-09-23T08:01:40.193Z,1.88
2022-09-23T08:04:13.218Z,2.03
2022-09-23T08:06:44.157Z,2.83
2022-09-23T08:09:12.022Z,2.20
2022-09-23T08:11:42.427Z,2.20
2022-09-23T08:14:14.221Z,2.47
2022-09-23T08:16:42.562Z,2.40
2022-09-23T08:19:10.030Z,2.47
2022-09-23T08:21:39.466Z,2.53
2022-09-23T08:24:08.668Z,2.08
2022-09-23T08:26:35.813Z,2.50
2022-09-23T08:29:03.067Z,2.90
2022-09-23T08:31:30.222Z,3.22
2022-09-23T08:33:58.393Z,2.72
2022-09-23T08:36:26.291Z,3.58
2022-09-23T08:38:54.285Z,2.97
2022-09-23T08:41:26.725Z,2.47
2022-09-23T08:44:02.212Z,2.65
2022-09-23T08:46:40.927Z,1.75
2022-09-23T08:49:14.461Z,1.90
2022-09-23T08:51:48.734Z,1.88
2022-09-23T08:54:18.259Z,2.47
2022-09-23T08:56:49.205Z,2.30
2022-09-23T08:59:35.302Z,1.70
2022-09-23T09:02:15.207Z,1.60
2022-09-23T09:04:45.288Z,1.83
2022-09-23T09:07:35.663Z,2.28
2022-09-23T09:10:28.555Z,1.85
2022-09-23T09:13:07.471Z,1.90
2022-09-23T09:15:46.055Z,1.73
2022-09-23T09:18:20.938Z,1.77
2022-09-23T09:21:08.686Z,1.80
2022-09-23T09:24:18.889Z,1.70
2022-09-23T09:26:46.374Z,1.48
2022-09-23T09:29:34.773Z,1.60
2022-09-23T09:32:20.644Z,1.73
2022-09-23T09:34:56.624Z,1.60
2022-09-23T09:37:45.975Z,1.48
2022-09-23T09:40:15.210Z,1.63
2022-09-23T09:42:47.423Z,1.45
2022-09-23T09:45:24.415Z,1.60
2022-09-23T09:48:15.093Z,1.88
2022-09-23T09:50:49.134Z,1.52
2022-09-23T09:53:36.208Z,1.50
2022-09-23T09:56:08.966Z,1.70
2022-09-23T09:59:00.637Z,1.80
2022-09-23T10:01:35.230Z,1.33
2022-09-23T10:04:06.389Z,1.65
2022-09-23T10:06:35.768Z,1.92
2022-09-23T10:09:08.658Z,1.80
2022-09-23T10:11:36.045Z,1.80
2022-09-23T10:14:19.055Z,1.30
2022-09-23T10:16:49.037Z,1.58
2022-09-23T10:19:22.426Z,1.65
2022-09-23T10:22:00.367Z,1.70
2022-09-23T10:24:30.621Z,1.60
2022-09-23T10:27:02.441Z,1.55
2022-09-23T10:29:33.360Z,1.70
2022-09-23T10:32:43.301Z,1.42
2022-09-23T10:35:36.972Z,1.50
2022-09-23T10:38:05.921Z,1.55
2022-09-23T10:40:59.302Z,1.60
2022-09-23T10:44:09.749Z,1.80
2022-09-23T10:46:39.058Z,1.50
2022-09-23T10:49:15.155Z,1.60
2022-09-23T10:52:00.663Z,1.90
2022-09-23T10:54:47.226Z,1.83
2022-09-23T10:57:42.649Z,1.90
2022-09-23T11:00:40.974Z,2.00
2022-09-23T11:03:27.019Z,2.00
2022-09-23T11:06:13.123Z,1.98
2022-09-23T11:09:01.092Z,1.92
2022-09-23T11:12:01.436Z,1.75
2022-09-23T11:14:38.719Z,2.17
2022-09-23T11:17:20.076Z,2.40
2022-09-23T11:20:23.836Z,2.03
2022-09-23T11:23:09.694Z,2.45
2022-09-23T11:25:56.358Z,1.98
2022-09-23T11:28:47.525Z,2.28
2022-09-23T11:31:52.580Z,2.40
2022-09-23T11:34:39.484Z,1.85
2022-09-23T11:37:22.556Z,2.13
2022-09-23T11:39:57.943Z,1.90
2022-09-23T11:42:36.567Z,2.30
2022-09-23T11:45:19.092Z,2.05
2022-09-23T11:47:59.597Z,2.35
2022-09-23T11:50:35.057Z,2.22
2022-09-23T11:53:25.712Z,2.53
2022-09-23T11:56:07.514Z,2.80
2022-09-23T11:59:03.059Z,3.42
2022-09-23T12:02:18.265Z,2.67
2022-09-23T12:04:58.472Z,2.50
2022-09-23T12:07:45.787Z,3.03
2022-09-23T12:10:13.582Z,2.65
2022-09-23T12:13:10.637Z,2.50
2022-09-23T12:16:10.337Z,2.05
2022-09-23T12:19:04.635Z,1.88
2022-09-23T12:21:51.580Z,2.75
2022-09-23T12:24:31.537Z,2.30
2022-09-23T12:27:05.676Z,2.70
2022-09-23T12:29:35.497Z,2.88
2022-09-23T12:32:07.470Z,2.85
2022-09-23T12:34:44.132Z,2.40
2022-09-23T12:37:11.254Z,2.17
2022-09-23T12:39:40.043Z,2.47
2022-09-23T12:42:22.249Z,2.20
2022-09-23T12:44:49.360Z,1.95
2022-09-23T12:47:25.076Z,2.75
2022-09-23T12:49:57.615Z,2.15
2022-09-23T12:52:26.291Z,2.80
2022-09-23T12:54:58.251Z,2.35
2022-09-23T12:57:34.661Z,2.75
2022-09-23T13:00:13.802Z,2.78
2022-09-23T13:03:10.420Z,2.83
2022-09-23T13:06:17.064Z,3.00
2022-09-23T13:08:47.210Z,3.28
2022-09-23T13:11:26.480Z,2.88
2022-09-23T13:13:57.612Z,2.88
2022-09-23T13:16:38.197Z,2.50
2022-09-23T13:19:07.391Z,2.70
2022-09-23T13:21:43.067Z,2.50
2022-09-23T13:24:36.396Z,3.10
2022-09-23T13:27:05.924Z,2.97
2022-09-23T13:29:56.594Z,2.78
2022-09-23T13:32:35.795Z,2.83
2022-09-23T13:35:15.337Z,2.97
2022-09-23T13:37:49.854Z,2.85
2022-09-23T13:40:20.999Z,3.05
2022-09-23T13:42:57.954Z,2.88
2022-09-23T13:45:26.195Z,2.75
2022-09-23T13:48:00.200Z,2.83
2022-09-23T13:50:32.873Z,2.90
2022-09-23T13:53:07.453Z,3.35
2022-09-23T13:55:40.019Z,3.17
2022-09-23T13:58:24.431Z,2.55
2022-09-23T14:00:51.896Z,2.22
2022-09-23T14:03:36.774Z,2.58
2022-09-23T14:06:16.763Z,2.65
2022-09-23T14:08:50.803Z,3.00
2022-09-23T14:11:24.295Z,3.42
2022-09-23T14:13:55.387Z,3.58
2022-09-23T14:16:26.978Z,3.63
2022-09-23T14:19:00.398Z,2.90
2022-09-23T14:21:35.394Z,3.00
2022-09-23T14:24:29.195Z,3.05
2022-09-23T14:27:25.203Z,2.58
2022-09-23T14:29:52.787Z,3.33
2022-09-23T14:32:23.821Z,2.83
2022-09-23T14:34:58.446Z,2.77
2022-09-23T14:38:05.637Z,2.88
2022-09-23T14:40:38.875Z,2.45
2022-09-23T14:43:11.492Z,2.28
2022-09-23T14:45:41.151Z,2.47
2022-09-23T14:48:14.715Z,2.47
2022-09-23T14:51:06.896Z,2.50
2022-09-23T14:53:41.076Z,2.58
2022-09-23T14:56:10.822Z,2.53
2022-09-23T14:58:53.173Z,2.42
2022-09-23T15:01:31.213Z,2.30
2022-09-23T15:04:10.939Z,2.53
2022-09-23T15:06:40.941Z,2.55
2022-09-23T15:09:09.347Z,2.20
2022-09-23T15:11:36.821Z,2.40
2022-09-23T15:14:26.058Z,2.72
2022-09-23T15:16:53.735Z,2.55
2022-09-23T15:19:27.000Z,2.67
2022-09-23T15:22:01.103Z,2.47
2022-09-23T15:24:58.387Z,2.28
2022-09-23T15:27:35.237Z,1.85
2022-09-23T15:30:17.327Z,1.85
2022-09-23T15:32:46.766Z,2.10
2022-09-23T15:35:20.044Z,2.20
2022-09-23T15:37:50.388Z,2.13
2022-09-23T15:40:21.063Z,2.22
2022-09-23T15:42:52.729Z,1.95
2022-09-23T15:45:37.473Z,2.47
2022-09-23T15:48:15.318Z,2.55
2022-09-23T15:50:43.014Z,1.92
2022-09-23T15:53:24.774Z,2.35
2022-09-23T15:55:53.768Z,2.40
2022-09-23T15:58:25.054Z,2.25
2022-09-23T16:00:56.794Z,2.43
2022-09-23T16:03:28.581Z,2.47
2022-09-23T16:06:15.235Z,2.78
2022-09-23T16:08:43.211Z,2.50
2022-09-23T16:11:34.906Z,2.97
2022-09-23T16:14:02.010Z,2.77
2022-09-23T16:16:29.512Z,2.72
2022-09-23T16:18:56.636Z,2.78
2022-09-23T16:21:28.640Z,2.50
2022-09-23T16:23:57.434Z,2.88
2022-09-23T16:26:35.592Z,3.55
2022-09-23T16:29:03.068Z,3.90
2022-09-23T16:31:31.502Z,3.67
2022-09-23T16:34:02.152Z,3.20
2022-09-23T16:36:39.703Z,3.60
2022-09-23T16:39:10.121Z,3.70
2022-09-23T16:41:37.287Z,3.25
2022-09-23T16:44:07.698Z,2.90
2022-09-23T16:46:35.308Z,2.60
2022-09-23T16:49:02.853Z,2.70
2022-09-23T16:51:37.369Z,2.78
2022-09-23T16:54:10.797Z,2.90
2022-09-23T16:56:45.435Z,2.78
2022-09-23T16:59:14.864Z,3.08
2022-09-23T17:02:01.096Z,2.38
2022-09-23T17:04:28.517Z,2.67
2022-09-23T17:06:56.544Z,2.97
2022-09-23T17:09:27.987Z,3.08
2022-09-23T17:12:13.531Z,2.38
2022-09-23T17:14:41.374Z,3.40
2022-09-23T17:17:10.703Z,4.40
2022-09-23T17:19:41.854Z,4.63
2022-09-23T17:22:10.403Z,4.93
2022-09-23T17:24:37.653Z,5.93
2022-09-23T17:27:04.754Z,7.50
2022-09-23T17:29:35.591Z,8.52
2022-09-23T17:32:04.565Z,5.13
2022-09-23T17:34:33.456Z,4.15
2022-09-23T17:37:00.812Z,2.72
2022-09-23T17:39:28.024Z,2.83
2022-09-23T17:41:58.726Z,3.72
2022-09-23T17:44:26.637Z,4.20
2022-09-23T17:46:53.583Z,3.88
2022-09-23T17:49:21.555Z,4.18
2022-09-23T17:51:49.143Z,4.50
2022-09-23T17:54:16.330Z,4.30
2022-09-23T17:56:43.402Z,4.18
2022-09-23T17:59:12.603Z,3.92
2022-09-23T18:01:39.969Z,4.85
2022-09-23T18:04:08.370Z,3.03
2022-09-23T18:09:51.577Z,3.97
2022-09-23T18:12:19.002Z,3.33
2022-09-23T18:14:48.660Z,3.88
2022-09-23T18:17:16.402Z,3.95
2022-09-23T18:19:54.404Z,4.68
2022-09-23T18:22:21.654Z,7.32
2022-09-23T18:24:49.522Z,7.70
2022-09-23T18:27:16.819Z,7.18
2022-09-23T18:29:43.922Z,7.32
2022-09-23T18:32:14.251Z,6.50
2022-09-23T18:34:41.611Z,5.15
2022-09-23T18:37:15.697Z,5.43
2022-09-23T18:39:45.037Z,6.15
2022-09-23T18:42:12.483Z,7.13
2022-09-23T18:44:40.754Z,7.55
2022-09-23T18:47:29.151Z,7.53
2022-09-23T18:50:15.376Z,6.43
2022-09-23T18:52:42.406Z,6.28
2022-09-23T18:55:10.638Z,6.20
2022-09-23T18:57:38.196Z,5.22
2022-09-23T19:00:07.275Z,6.78
2022-09-23T19:02:34.224Z,6.15
2022-09-23T19:05:02.105Z,6.97
2022-09-23T19:07:29.161Z,6.80
2022-09-23T19:09:56.638Z,6.55
2022-09-23T19:12:23.656Z,6.57
2022-09-23T19:14:50.779Z,7.25
2022-09-23T19:17:17.946Z,6.50
2022-09-23T19:19:46.222Z,7.25
2022-09-23T19:22:13.967Z,6.40
2022-09-23T19:24:42.107Z,6.75
2022-09-23T19:27:12.217Z,6.88
2022-09-23T19:29:40.215Z,7.80
2022-09-23T19:32:07.462Z,6.82
2022-09-23T19:34:36.844Z,7.53
2022-09-23T19:37:05.191Z,6.95
2022-09-23T19:39:33.447Z,7.63
2022-09-23T19:42:08.568Z,7.60
2022-09-23T19:44:41.178Z,7.28
2022-09-23T19:50:07.686Z,7.35
2022-09-23T19:52:35.043Z,8.43
2022-09-23T19:55:06.951Z,7.45
2022-09-23T19:57:34.325Z,7.63
2022-09-23T20:00:05.225Z,7.55
2022-09-23T20:02:39.409Z,7.25
2022-09-23T20:05:06.707Z,7.60
2022-09-23T20:07:33.709Z,7.75
2022-09-23T20:10:01.003Z,9.35
2022-09-23T20:12:29.412Z,8.10
2022-09-23T20:14:59.025Z,8.98
2022-09-23T20:17:26.473Z,10.20
2022-09-23T20:19:53.965Z,9.45
2022-09-23T20:22:33.155Z,8.65
2022-09-23T20:25:02.190Z,8.63
2022-09-23T20:27:31.401Z,9.48
2022-09-23T20:29:59.960Z,9.52
2022-09-23T20:32:28.328Z,8.98
2022-09-23T20:34:57.171Z,9.43
2022-09-23T20:37:25.951Z,8.75
2022-09-23T20:39:53.971Z,8.85
2022-09-23T20:42:21.896Z,8.10
2022-09-23T20:44:49.006Z,9.63
2022-09-23T20:47:21.909Z,10.55
2022-09-23T20:49:50.101Z,10.02
2022-09-23T20:52:18.333Z,9.73
2022-09-23T20:54:45.688Z,9.50
2022-09-23T20:57:22.075Z,9.95
2022-09-23T20:59:49.638Z,9.43
2022-09-23T21:02:16.787Z,10.05
2022-09-23T21:04:44.457Z,10.18
2022-09-23T21:07:11.436Z,9.80
2022-09-23T21:09:38.574Z,9.90
2022-09-23T21:12:05.874Z,9.30
2022-09-23T21:14:33.576Z,9.90
2022-09-23T21:17:00.826Z,8.50
2022-09-23T21:19:28.376Z,9.93
2022-09-23T21:21:55.406Z,9.52
2022-09-23T21:28:05.128Z,9.85
2022-09-23T21:30:33.472Z,9.23
2022-09-23T21:33:01.969Z,9.63
2022-09-23T21:35:28.857Z,10.00
2022-09-23T21:37:55.914Z,9.75
2022-09-23T21:40:58.706Z,9.27
2022-09-23T21:43:27.651Z,9.85
2022-09-23T21:45:59.859Z,9.65
2022-09-23T21:50:57.325Z,9.68
2022-09-23T21:53:24.672Z,10.40
2022-09-23T21:55:51.773Z,10.35
2022-09-23T21:58:18.791Z,9.93
2022-09-23T22:00:46.137Z,9.95
2022-09-23T22:03:13.292Z,10.20
2022-09-23T22:05:43.369Z,9.88
2022-09-23T22:08:10.741Z,9.70
2022-09-23T22:10:38.019Z,10.23
2022-09-23T22:13:12.534Z,9.60
2022-09-23T22:15:39.851Z,9.20
2022-09-23T22:18:06.981Z,9.73
2022-09-23T22:20:34.198Z,9.57
2022-09-23T22:23:01.223Z,10.15
2022-09-23T22:25:28.896Z,10.23
2022-09-23T22:28:14.463Z,9.35
2022-09-23T22:31:00.292Z,10.30
2022-09-23T22:33:27.498Z,10.65
2022-09-23T22:36:04.483Z,10.70
2022-09-23T22:38:32.821Z,10.63
2022-09-23T22:41:00.478Z,12.27
2022-09-23T22:43:28.276Z,10.13
2022-09-23T22:45:55.202Z,11.23
2022-09-23T22:48:26.468Z,10.15
2022-09-23T22:50:53.492Z,10.33
2022-09-23T22:53:20.840Z,10.25
2022-09-23T22:55:59.242Z,10.32
2022-09-23T22:58:31.595Z,10.60
2022-09-23T23:00:59.561Z,9.88
2022-09-23T23:03:27.173Z,10.73
2022-09-23T23:05:57.639Z,10.15
2022-09-23T23:08:24.802Z,9.25
2022-09-23T23:10:51.704Z,9.82
2022-09-23T23:13:19.283Z,9.52
2022-09-23T23:15:46.764Z,9.80
2022-09-23T23:18:14.139Z,8.75
2022-09-23T23:20:41.758Z,9.85
2022-09-23T23:23:08.949Z,9.40
2022-09-23T23:25:35.931Z,9.32
2022-09-23T23:28:05.692Z,10.70
2022-09-23T23:30:34.973Z,9.88
2022-09-23T23:33:02.022Z,8.90
2022-09-23T23:35:28.976Z,9.90
2022-09-23T23:37:55.937Z,10.18
2022-09-23T23:40:23.065Z,10.20
2022-09-23T23:42:50.037Z,10.57
2022-09-23T23:45:17.437Z,10.00
2022-09-23T23:47:44.906Z,10.68
2022-09-23T23:50:11.954Z,10.75
2022-09-23T23:52:39.214Z,9.85
2022-09-23T23:55:06.481Z,11.00
2022-09-23T23:57:33.393Z,9.32
